Marble Falls' Hourly Summary for Thursday, May 10, 2018
Hour Temp
(f)
RH
(%)
Solar Rad.
(MJ/m2)
Rainfall
(in)
Wind
(mph)
5/10/2018 12:00 AM 73 44 0 0 4.67
5/10/2018 1:00 AM 72 60 0 0 8.68
5/10/2018 2:00 AM 70 60 0 0 8.68
5/10/2018 3:00 AM 69 80 0 0 8.12
5/10/2018 4:00 AM 68 80 0 0 5.67
5/10/2018 5:00 AM 68 81 0 0 5.67
5/10/2018 6:00 AM 69 81 0 0 4.9
5/10/2018 7:00 AM 69 84 0.14 0 4.9
5/10/2018 8:00 AM 70 84 0.44 0 6.54
5/10/2018 9:00 AM 72 75 0.57 0 6.54
5/10/2018 10:00 AM 74 71 0.94 0 6.39
5/10/2018 11:00 AM 77 64 2.49 0 6.51
5/10/2018 12:00 PM 80 52 3.23 0 8.12
5/10/2018 1:00 PM 82 44 3.42 0 8.12
5/10/2018 2:00 PM 83 39 3.42 0 8.66
5/10/2018 3:00 PM 85 36 3.05 0 8.66
5/10/2018 4:00 PM 86 33 3.05 0 8.87
5/10/2018 5:00 PM 86 34 2.56 0 8.87
5/10/2018 6:00 PM 86 34 1.94 0 8.31
5/10/2018 7:00 PM 86 39 1.22 0 7.98
5/10/2018 8:00 PM 84 39 0.52 0 7.52
5/10/2018 9:00 PM 81 42 0.05 0 4.54
5/10/2018 10:00 PM 78 47 0 0 3.58
5/10/2018 11:00 PM 76 58 0 0 4.07
Data Summary 76 56 27.04 0.00 6.86